This is the latest recevied weather packets stored in our database for station/object BV1EV-2. If no packets are shown the sender has not sent any weather packets the latest 10 day(s).
| Time | Temp. | Humidity | Pressure | Rain* | Wind** | Luminosity | Snow |
|---|---|---|---|---|---|---|---|
| 1777567068 | 26.11° C | 34% | 1015 hPa | - | - | - | - |
| 1777565868 | 26.67° C | 36% | 1015.2 hPa | - | - | - | - |
| 1777564668 | 26.11° C | 35% | 1015.2 hPa | - | - | - | - |
| 1777563468 | 26.67° C | 34% | 1015.6 hPa | - | - | - | - |
| 1777562268 | 27.22° C | 35% | 1015.7 hPa | - | - | - | - |
| 1777561068 | 27.78° C | 36% | 1015.7 hPa | - | - | - | - |
| 1777559868 | 27.78° C | 39% | 1015.9 hPa | - | - | - | - |
| 1777558667 | 28.33° C | 43% | 1015.9 hPa | - | - | - | - |
| 1777557467 | 28.33° C | 43% | 1015.9 hPa | - | - | - | - |
| 1777556268 | 27.78° C | 43% | 1015.8 hPa | - | - | - | - |
| 1777555068 | 27.78° C | 43% | 1016 hPa | - | - | - | - |
| 1777553868 | 28.33° C | 45% | 1015.7 hPa | - | - | - | - |
| 1777552668 | 27.22° C | 46% | 1015.7 hPa | - | - | - | - |
| 1777551468 | 25° C | 55% | 1015.6 hPa | - | - | - | - |
| 1777550269 | 29.44° C | 43% | 1015.4 hPa | - | - | - | - |
| 1777549068 | 29.44° C | 44% | 1014.9 hPa | - | - | - | - |
| 1777547868 | 29.44° C | 45% | 1014.9 hPa | - | - | - | - |
| 1777546668 | 27.78° C | 54% | 1014.9 hPa | - | - | - | - |
| 1777545468 | 27.22° C | 54% | 1014.8 hPa | - | - | - | - |
| 1777544267 | 27.22° C | 53% | 1014.6 hPa | - | - | - | - |
| 1777543067 | 27.22° C | 53% | 1014.6 hPa | - | - | - | - |
| 1777541867 | 27.22° C | 48% | 1014.3 hPa | - | - | - | - |
| 1777540667 | 28.89° C | 43% | 1014 hPa | - | - | - | - |
| 1777539467 | 28.89° C | 44% | 1013.7 hPa | - | - | - | - |
| 1777538268 | 29.44° C | 43% | 1013.6 hPa | - | - | - | - |
* Rain since midnight (hover to see other rain measurements)
** Current wind speed in m/s (hover to see current wind gust speed)